createdAt,value
2023-01-17T00:00:10.025Z,4.2
2023-01-17T00:01:10.089Z,4.2
2023-01-17T00:02:10.010Z,4.2
2023-01-17T00:03:09.979Z,2.2
2023-01-17T00:04:10.232Z,2.2
2023-01-17T00:05:09.984Z,2.2
2023-01-17T00:06:09.985Z,6
2023-01-17T00:07:10.129Z,6
2023-01-17T00:08:10.057Z,6
2023-01-17T00:09:10.099Z,4.4
2023-01-17T00:10:10.023Z,4.4
2023-01-17T00:11:10.013Z,4.4
2023-01-17T00:12:10.040Z,4.4
2023-01-17T00:13:10.007Z,4.6
2023-01-17T00:14:10.012Z,4.6
2023-01-17T00:15:10.114Z,4.6
2023-01-17T00:16:10.085Z,6
2023-01-17T00:17:10.077Z,6
2023-01-17T00:18:10.032Z,6
2023-01-17T00:19:10.143Z,3.8
2023-01-17T00:20:10.125Z,3.8
2023-01-17T00:21:10.053Z,3.8
2023-01-17T00:22:10.150Z,3.8
2023-01-17T00:23:10.056Z,3.9
2023-01-17T00:24:10.086Z,3.9
2023-01-17T00:25:10.139Z,3.9
2023-01-17T00:26:10.155Z,3.9
2023-01-17T00:27:10.085Z,3.9
2023-01-17T00:28:10.079Z,3.9
2023-01-17T00:29:10.088Z,3.9
2023-01-17T00:30:10.041Z,4.2
2023-01-17T00:31:10.090Z,4.2
2023-01-17T00:32:10.037Z,4.2
2023-01-17T00:33:10.077Z,4.2
2023-01-17T00:34:10.100Z,4.2
2023-01-17T00:35:10.084Z,4.2
2023-01-17T00:36:10.132Z,3.8
2023-01-17T00:37:10.133Z,3.8
2023-01-17T00:38:10.086Z,3.8
2023-01-17T00:39:10.081Z,3.8
2023-01-17T00:40:10.081Z,4
2023-01-17T00:41:10.089Z,4
2023-01-17T00:42:10.081Z,4
2023-01-17T00:43:10.131Z,3.1
2023-01-17T00:44:10.138Z,3.1
2023-01-17T00:45:10.131Z,3.1
2023-01-17T00:46:10.123Z,3.4
2023-01-17T00:47:10.201Z,3.4
2023-01-17T00:48:10.155Z,3.4
2023-01-17T00:49:10.152Z,3.4
2023-01-17T00:50:10.200Z,3.6
2023-01-17T00:51:10.150Z,3.6
2023-01-17T00:52:10.224Z,3.6
2023-01-17T00:53:10.120Z,3
2023-01-17T00:54:10.187Z,3
2023-01-17T00:55:10.197Z,3
2023-01-17T00:56:10.248Z,5.8
2023-01-17T00:57:10.263Z,5.8
2023-01-17T00:58:10.149Z,5.8
2023-01-17T00:59:10.194Z,5.8
2023-01-17T01:00:10.161Z,3.9
2023-01-17T01:01:10.354Z,3.9
2023-01-17T01:02:10.350Z,3.9
2023-01-17T01:03:10.185Z,4.3
2023-01-17T01:04:10.177Z,4.3
2023-01-17T01:05:10.186Z,4.3
2023-01-17T01:06:10.183Z,4.3
2023-01-17T01:07:10.187Z,4.3
2023-01-17T01:08:10.233Z,4.3
2023-01-17T01:09:10.276Z,4.3
2023-01-17T01:10:10.181Z,3.5
2023-01-17T01:11:10.310Z,3.5
2023-01-17T01:12:10.213Z,3.5
2023-01-17T01:13:10.204Z,3.4
2023-01-17T01:14:10.197Z,3.4
2023-01-17T01:15:10.214Z,3.4
2023-01-17T01:16:10.246Z,4.2
2023-01-17T01:17:10.190Z,4.2
2023-01-17T01:18:10.226Z,4.2
2023-01-17T01:19:10.211Z,4.2
2023-01-17T01:20:10.201Z,5.2
2023-01-17T01:21:10.194Z,5.2
2023-01-17T01:22:10.200Z,5.2
2023-01-17T01:23:10.358Z,3.8
2023-01-17T01:24:10.252Z,3.8
2023-01-17T01:25:10.217Z,3.8
2023-01-17T01:26:10.241Z,3.6
2023-01-17T01:27:10.346Z,3.6
2023-01-17T01:28:10.252Z,3.6
2023-01-17T01:29:10.336Z,3.6
2023-01-17T01:30:10.284Z,3.9
2023-01-17T01:31:10.332Z,3.9
2023-01-17T01:32:10.301Z,3.9
2023-01-17T01:33:10.285Z,3.6
2023-01-17T01:34:10.298Z,3.6
2023-01-17T01:35:10.293Z,3.6
2023-01-17T01:36:10.242Z,2.7
2023-01-17T01:37:10.294Z,2.7
2023-01-17T01:38:10.268Z,2.7
2023-01-17T01:39:10.355Z,2.7
2023-01-17T01:40:10.311Z,4.3
2023-01-17T01:41:10.273Z,4.3
2023-01-17T01:42:10.298Z,4.3
2023-01-17T01:43:10.373Z,4.8
2023-01-17T01:44:10.372Z,4.8
2023-01-17T01:45:10.273Z,4.8
2023-01-17T01:46:10.286Z,2.8
2023-01-17T01:47:10.372Z,2.8
2023-01-17T01:48:10.313Z,2.8
2023-01-17T01:49:10.322Z,2.8
2023-01-17T01:50:10.284Z,4
2023-01-17T01:51:10.298Z,4
2023-01-17T01:52:10.316Z,4
2023-01-17T01:53:10.322Z,4.2
2023-01-17T01:54:10.300Z,4.2
2023-01-17T01:55:10.386Z,4.2
2023-01-17T01:56:10.347Z,4.8
2023-01-17T01:57:10.405Z,4.8
2023-01-17T01:58:10.313Z,4.8
2023-01-17T01:59:10.339Z,4.8
2023-01-17T02:00:10.355Z,5
2023-01-17T02:01:10.516Z,5
2023-01-17T02:02:10.349Z,5
2023-01-17T02:03:10.516Z,4.7
2023-01-17T02:04:10.464Z,4.7
2023-01-17T02:05:10.387Z,4.7
2023-01-17T02:06:10.318Z,3.9
2023-01-17T02:07:10.460Z,3.9
2023-01-17T02:08:10.349Z,3.9
2023-01-17T02:09:10.453Z,3.9
2023-01-17T02:10:10.393Z,3.8
2023-01-17T02:11:10.403Z,3.8
2023-01-17T02:12:10.362Z,3.8
2023-01-17T02:13:10.364Z,3.6
2023-01-17T02:14:10.627Z,3.6
2023-01-17T02:15:10.338Z,3.6
2023-01-17T02:16:10.371Z,3.6
2023-01-17T02:17:10.392Z,2.1
2023-01-17T02:18:10.345Z,2.1
2023-01-17T02:19:10.408Z,2.1
2023-01-17T02:20:10.351Z,2
2023-01-17T02:21:10.412Z,2
2023-01-17T02:22:10.382Z,2
2023-01-17T02:23:10.408Z,2.9
2023-01-17T02:24:10.388Z,2.9
2023-01-17T02:25:10.489Z,2.9
2023-01-17T02:26:10.388Z,2.9
2023-01-17T02:27:10.439Z,4.4
2023-01-17T02:28:10.424Z,4.4
2023-01-17T02:29:10.391Z,4.4
2023-01-17T02:30:10.399Z,3.7
2023-01-17T02:31:10.390Z,3.7
2023-01-17T02:32:10.431Z,3.7
2023-01-17T02:33:10.399Z,3.5
2023-01-17T02:34:10.406Z,3.5
2023-01-17T02:35:10.511Z,3.5
2023-01-17T02:36:10.541Z,3.5
2023-01-17T02:37:10.625Z,2.2
2023-01-17T02:38:10.445Z,2.2
2023-01-17T02:39:10.496Z,2.2
2023-01-17T02:40:10.454Z,2
2023-01-17T02:41:10.484Z,2
2023-01-17T02:42:10.429Z,2
2023-01-17T02:43:10.426Z,3.1
2023-01-17T02:44:10.494Z,3.1
2023-01-17T02:45:10.429Z,3.1
2023-01-17T02:46:10.547Z,3.1
2023-01-17T02:47:10.439Z,4.2
2023-01-17T02:48:10.449Z,4.2
2023-01-17T02:49:10.499Z,4.2
2023-01-17T02:50:10.450Z,3
2023-01-17T02:51:10.470Z,3
2023-01-17T02:52:10.468Z,3
2023-01-17T02:53:10.441Z,4
2023-01-17T02:54:10.443Z,4
2023-01-17T02:55:10.450Z,4
2023-01-17T02:56:10.448Z,4
2023-01-17T02:57:10.512Z,2.4
2023-01-17T02:58:10.457Z,2.4
2023-01-17T02:59:10.492Z,2.4
2023-01-17T03:00:10.468Z,2.4
2023-01-17T03:01:10.724Z,2.4
2023-01-17T03:02:10.638Z,2.4
2023-01-17T03:03:10.523Z,4.8
2023-01-17T03:04:10.509Z,4.8
2023-01-17T03:05:10.529Z,4.8
2023-01-17T03:06:10.479Z,4.8
2023-01-17T03:07:10.525Z,2.2
2023-01-17T03:08:10.530Z,2.2
2023-01-17T03:09:10.592Z,2.2
2023-01-17T03:10:10.589Z,2.9
2023-01-17T03:11:10.509Z,2.9
2023-01-17T03:12:10.548Z,2.9
2023-01-17T03:13:10.547Z,3.2
2023-01-17T03:14:10.524Z,3.2
2023-01-17T03:15:10.518Z,3.2
2023-01-17T03:16:12.635Z,3.2
2023-01-17T03:17:10.555Z,0.9
2023-01-17T03:18:10.517Z,0.9
2023-01-17T03:19:10.640Z,0.9
2023-01-17T03:20:10.547Z,0.9
2023-01-17T03:21:10.553Z,0.9
2023-01-17T03:22:10.611Z,0.9
2023-01-17T03:23:10.545Z,2.1
2023-01-17T03:24:10.556Z,2.1
2023-01-17T03:25:10.555Z,2.1
2023-01-17T03:26:10.549Z,2.1
2023-01-17T03:27:10.552Z,2.6
2023-01-17T03:28:10.629Z,2.6
2023-01-17T03:29:10.692Z,2.6
2023-01-17T03:30:10.571Z,3.4
2023-01-17T03:31:10.563Z,3.4
2023-01-17T03:32:10.623Z,3.4
2023-01-17T03:33:10.631Z,2.4
2023-01-17T03:34:10.606Z,2.4
2023-01-17T03:35:10.621Z,2.4
2023-01-17T03:36:10.563Z,2.4
2023-01-17T03:37:10.631Z,2.6
2023-01-17T03:38:10.566Z,2.6
2023-01-17T03:39:10.563Z,2.6
2023-01-17T03:40:10.566Z,2.8
2023-01-17T03:41:10.566Z,2.8
2023-01-17T03:42:10.600Z,2.8
2023-01-17T03:43:10.624Z,3.5
2023-01-17T03:44:10.717Z,3.5
2023-01-17T03:45:10.649Z,3.5
2023-01-17T03:46:10.704Z,3.5
2023-01-17T03:47:10.630Z,2.7
2023-01-17T03:48:10.681Z,2.7
2023-01-17T03:49:10.635Z,2.7
2023-01-17T03:50:10.638Z,2.9
2023-01-17T03:51:10.629Z,2.9
2023-01-17T03:52:10.633Z,2.9
2023-01-17T03:53:10.636Z,1.2
2023-01-17T03:54:10.648Z,1.2
2023-01-17T03:55:10.643Z,1.2
2023-01-17T03:56:10.598Z,1.2
2023-01-17T03:57:10.644Z,3.1
2023-01-17T03:58:10.672Z,3.1
2023-01-17T03:59:13.026Z,3.1
2023-01-17T04:00:10.651Z,0.5
2023-01-17T04:01:10.730Z,0.5
2023-01-17T04:02:10.787Z,0.5
2023-01-17T04:03:10.639Z,0.8
2023-01-17T04:04:10.665Z,0.8
2023-01-17T04:05:10.638Z,0.8
2023-01-17T04:06:10.636Z,0.8
2023-01-17T04:07:10.680Z,3.3
2023-01-17T04:08:10.640Z,3.3
2023-01-17T04:09:10.686Z,3.3
2023-01-17T04:10:10.730Z,1.3
2023-01-17T04:11:10.776Z,1.3
2023-01-17T04:12:10.729Z,1.3
2023-01-17T04:13:10.724Z,0.8
2023-01-17T04:14:10.686Z,0.8
2023-01-17T04:15:10.744Z,0.8
2023-01-17T04:16:10.690Z,0.8
2023-01-17T04:17:10.697Z,3.7
2023-01-17T04:18:10.687Z,3.7
2023-01-17T04:19:10.768Z,3.7
2023-01-17T04:20:10.692Z,2.6
2023-01-17T04:21:10.710Z,2.6
2023-01-17T04:22:10.700Z,2.6
2023-01-17T04:23:10.710Z,2.9
2023-01-17T04:24:10.681Z,2.9
2023-01-17T04:25:10.669Z,2.9
2023-01-17T04:26:10.715Z,2.9
2023-01-17T04:27:10.736Z,1
2023-01-17T04:28:10.722Z,1
2023-01-17T04:29:11.028Z,1
2023-01-17T04:30:10.706Z,0
2023-01-17T04:31:10.793Z,0
2023-01-17T04:32:10.725Z,0
2023-01-17T04:33:10.724Z,1
2023-01-17T04:34:10.718Z,1
2023-01-17T04:35:10.729Z,1
2023-01-17T04:36:10.721Z,1
2023-01-17T04:37:10.725Z,0.7
2023-01-17T04:38:10.729Z,0.7
2023-01-17T04:39:10.762Z,0.7
2023-01-17T04:40:10.744Z,2.4
2023-01-17T04:41:10.779Z,2.4
2023-01-17T04:42:10.724Z,2.4
2023-01-17T04:43:10.807Z,2.4
2023-01-17T04:44:10.779Z,1.8
2023-01-17T04:45:10.822Z,1.8
2023-01-17T04:46:10.817Z,1.8
2023-01-17T04:47:10.788Z,3.7
2023-01-17T04:48:10.753Z,3.7
2023-01-17T04:49:10.783Z,3.7
2023-01-17T04:50:10.769Z,1.3
2023-01-17T04:51:10.785Z,1.3
2023-01-17T04:52:10.861Z,1.3
2023-01-17T04:53:10.844Z,1.3
2023-01-17T04:54:10.794Z,1.3
2023-01-17T04:55:10.870Z,1.3
2023-01-17T04:56:10.808Z,1.3
2023-01-17T04:57:10.878Z,0
2023-01-17T04:58:10.832Z,0
2023-01-17T04:59:10.890Z,0
2023-01-17T05:00:10.860Z,4.3
2023-01-17T05:01:11.000Z,4.3
2023-01-17T05:02:10.914Z,4.3
2023-01-17T05:03:10.909Z,4.3
2023-01-17T05:04:10.819Z,3.6
2023-01-17T05:05:11.047Z,3.6
2023-01-17T05:06:10.884Z,3.6
2023-01-17T05:07:10.900Z,0.8
2023-01-17T05:08:10.896Z,0.8
2023-01-17T05:09:10.938Z,0.8
2023-01-17T05:10:10.858Z,1.5
2023-01-17T05:11:10.863Z,1.5
2023-01-17T05:12:10.877Z,1.5
2023-01-17T05:13:10.874Z,1.5
2023-01-17T05:14:10.895Z,0
2023-01-17T05:15:10.868Z,0
2023-01-17T05:16:10.953Z,0
2023-01-17T05:17:10.877Z,0
2023-01-17T05:18:10.871Z,0
2023-01-17T05:19:10.864Z,0
2023-01-17T05:20:10.877Z,0.8
2023-01-17T05:21:10.876Z,0.8
2023-01-17T05:22:10.860Z,0.8
2023-01-17T05:23:10.869Z,0.8
2023-01-17T05:24:10.891Z,0.5
2023-01-17T05:25:10.884Z,0.5
2023-01-17T05:26:10.874Z,0.5
2023-01-17T05:27:10.924Z,1.1
2023-01-17T05:28:10.862Z,1.1
2023-01-17T05:29:10.921Z,1.1
2023-01-17T05:30:10.876Z,0
2023-01-17T05:31:10.921Z,0
2023-01-17T05:32:10.893Z,0
2023-01-17T05:33:10.864Z,0
2023-01-17T05:34:10.879Z,0.8
2023-01-17T05:35:11.002Z,0.8
2023-01-17T05:36:10.900Z,0.8
2023-01-17T05:37:10.955Z,0
2023-01-17T05:38:10.902Z,0
2023-01-17T05:39:11.039Z,0
2023-01-17T05:40:10.949Z,0.5
2023-01-17T05:41:10.913Z,0.5
2023-01-17T05:42:10.919Z,0.5
2023-01-17T05:43:10.913Z,0.5
2023-01-17T05:44:10.915Z,1
2023-01-17T05:45:10.920Z,1
2023-01-17T05:46:10.966Z,1
2023-01-17T05:47:10.917Z,0.6
2023-01-17T05:48:10.917Z,0.6
2023-01-17T05:49:10.909Z,0.6
2023-01-17T05:50:10.923Z,1.7
2023-01-17T05:51:10.912Z,1.7
2023-01-17T05:52:10.930Z,1.7
2023-01-17T05:53:10.919Z,1.7
2023-01-17T05:54:10.912Z,0.6
2023-01-17T05:55:10.919Z,0.6
2023-01-17T05:56:10.931Z,0.6
2023-01-17T05:57:10.959Z,0
2023-01-17T05:58:10.926Z,0
2023-01-17T05:59:13.236Z,0
2023-01-17T06:00:10.917Z,0.6
2023-01-17T06:01:10.940Z,0.6
2023-01-17T06:02:10.948Z,0.6
2023-01-17T06:03:10.917Z,0.6
2023-01-17T06:04:10.912Z,0
2023-01-17T06:05:10.921Z,0
2023-01-17T06:06:10.928Z,0
2023-01-17T06:07:10.967Z,0.9
2023-01-17T06:08:10.980Z,0.9
2023-01-17T06:09:11.011Z,0.9
2023-01-17T06:10:10.958Z,0.9
2023-01-17T06:11:10.971Z,0
2023-01-17T06:12:11.019Z,0
2023-01-17T06:13:11.006Z,0
2023-01-17T06:14:11.052Z,0
2023-01-17T06:15:11.077Z,0
2023-01-17T06:16:11.015Z,0
2023-01-17T06:17:11.009Z,0.5
2023-01-17T06:18:11.027Z,0.5
2023-01-17T06:19:10.982Z,0.5
2023-01-17T06:20:10.978Z,0.5
2023-01-17T06:21:10.995Z,0.7
2023-01-17T06:22:11.026Z,0.7
2023-01-17T06:23:11.040Z,0.7
2023-01-17T06:24:11.033Z,1.6
2023-01-17T06:25:10.999Z,1.6
2023-01-17T06:26:11.016Z,1.6
2023-01-17T06:27:11.145Z,1.6
2023-01-17T06:28:11.051Z,0.8
2023-01-17T06:29:11.128Z,0.8
2023-01-17T06:30:11.043Z,0.8
2023-01-17T06:31:11.088Z,0
2023-01-17T06:32:11.053Z,0
2023-01-17T06:33:11.124Z,0
2023-01-17T06:34:11.063Z,0.6
2023-01-17T06:35:11.037Z,0.6
2023-01-17T06:36:11.046Z,0.6
2023-01-17T06:37:11.187Z,0.6
2023-01-17T06:38:11.057Z,0.6
2023-01-17T06:39:11.838Z,0.6
2023-01-17T06:40:11.040Z,0.6
2023-01-17T06:41:11.034Z,0
2023-01-17T06:42:11.077Z,0
2023-01-17T06:43:11.037Z,0
2023-01-17T06:44:11.064Z,0
2023-01-17T06:45:11.047Z,0
2023-01-17T06:46:11.152Z,0
2023-01-17T06:47:11.042Z,0
2023-01-17T06:48:11.048Z,0.5
2023-01-17T06:49:11.046Z,0.5
2023-01-17T06:50:11.062Z,0.5
2023-01-17T06:51:11.114Z,1.1
2023-01-17T06:52:11.099Z,1.1
2023-01-17T06:53:11.079Z,1.1
2023-01-17T06:54:11.110Z,1.1
2023-01-17T06:55:11.085Z,1.1
2023-01-17T06:56:11.152Z,1.1
2023-01-17T06:57:11.109Z,1.1
2023-01-17T06:58:11.079Z,1.1
2023-01-17T06:59:11.092Z,1.1
2023-01-17T07:00:11.138Z,1.1
2023-01-17T07:01:11.163Z,0.7
2023-01-17T07:02:11.082Z,0.7
2023-01-17T07:03:11.083Z,0.7
2023-01-17T07:04:11.118Z,0.7
2023-01-17T07:05:11.171Z,0.7
2023-01-17T07:06:11.096Z,0.7
2023-01-17T07:07:11.126Z,0.7
2023-01-17T07:08:11.102Z,0
2023-01-17T07:09:11.086Z,0
2023-01-17T07:10:11.134Z,0
2023-01-17T07:11:11.105Z,0.9
2023-01-17T07:12:11.174Z,0.9
2023-01-17T07:13:11.094Z,0.9
2023-01-17T07:14:11.129Z,0.9
2023-01-17T07:15:11.146Z,0
2023-01-17T07:16:11.135Z,0
2023-01-17T07:17:11.195Z,0
2023-01-17T07:18:11.115Z,0
2023-01-17T07:19:11.201Z,0
2023-01-17T07:20:11.154Z,0
2023-01-17T07:21:11.122Z,0.7
2023-01-17T07:22:11.147Z,0.7
2023-01-17T07:23:11.226Z,0.7
2023-01-17T07:24:11.202Z,0.7
2023-01-17T07:25:11.148Z,0.5
2023-01-17T07:26:11.146Z,0.5
2023-01-17T07:27:11.173Z,0.5
2023-01-17T07:28:11.252Z,0.5
2023-01-17T07:29:11.169Z,0.5
2023-01-17T07:30:11.175Z,0.5
2023-01-17T07:31:11.323Z,1.4
2023-01-17T07:32:11.297Z,1.4
2023-01-17T07:33:11.181Z,1.4
2023-01-17T07:34:11.207Z,1.4
2023-01-17T07:35:11.184Z,0
2023-01-17T07:36:11.192Z,0
2023-01-17T07:37:12.105Z,0
2023-01-17T07:38:11.310Z,0
2023-01-17T07:39:11.202Z,0
2023-01-17T07:40:11.257Z,0
2023-01-17T07:41:11.331Z,0
2023-01-17T07:42:11.222Z,0
2023-01-17T07:43:11.231Z,0
2023-01-17T07:44:11.228Z,0
2023-01-17T07:45:11.470Z,0.6
2023-01-17T07:46:11.238Z,0.6
2023-01-17T07:47:11.270Z,0.6
2023-01-17T07:48:11.332Z,0
2023-01-17T07:49:11.245Z,0
2023-01-17T07:50:11.248Z,0
2023-01-17T07:51:11.343Z,0.8
2023-01-17T07:52:11.353Z,0.8
2023-01-17T07:53:11.296Z,0.8
2023-01-17T07:54:11.289Z,0.8
2023-01-17T07:55:11.353Z,0
2023-01-17T07:56:11.262Z,0
2023-01-17T07:57:11.297Z,0
2023-01-17T07:58:11.266Z,1.9
2023-01-17T07:59:11.254Z,1.9
2023-01-17T08:00:11.257Z,1.9
2023-01-17T08:01:11.336Z,1.1
2023-01-17T08:02:11.309Z,1.1
2023-01-17T08:03:11.262Z,1.1
2023-01-17T08:04:11.333Z,1.1
2023-01-17T08:05:11.259Z,1.3
2023-01-17T08:06:11.258Z,1.3
2023-01-17T08:07:11.316Z,1.3
2023-01-17T08:08:11.281Z,1.3
2023-01-17T08:09:11.265Z,1.3
2023-01-17T08:10:11.316Z,1.3
2023-01-17T08:11:11.263Z,0
2023-01-17T08:12:11.291Z,0
2023-01-17T08:13:11.287Z,0
2023-01-17T08:14:11.270Z,0
2023-01-17T08:15:11.268Z,0
2023-01-17T08:16:11.299Z,0
2023-01-17T08:17:11.443Z,0
2023-01-17T08:18:11.296Z,1.1
2023-01-17T08:19:11.294Z,1.1
2023-01-17T08:20:11.329Z,1.1
2023-01-17T08:21:11.293Z,0.6
2023-01-17T08:22:11.341Z,0.6
2023-01-17T08:23:11.336Z,0.6
2023-01-17T08:24:11.385Z,0.6
2023-01-17T08:25:11.330Z,0
2023-01-17T08:26:11.307Z,0
2023-01-17T08:27:11.376Z,0
2023-01-17T08:28:11.318Z,0.7
2023-01-17T08:29:11.323Z,0.7
2023-01-17T08:30:11.316Z,0.7
2023-01-17T08:31:11.376Z,0.7
2023-01-17T08:32:11.425Z,1.3
2023-01-17T08:33:11.321Z,1.3
2023-01-17T08:34:11.333Z,1.3
2023-01-17T08:35:11.320Z,0
2023-01-17T08:36:11.396Z,0
2023-01-17T08:37:11.379Z,0
2023-01-17T08:38:11.436Z,0
2023-01-17T08:39:11.401Z,0
2023-01-17T08:40:11.379Z,0
2023-01-17T08:41:11.393Z,0
2023-01-17T08:42:11.573Z,0
2023-01-17T08:43:11.459Z,0
2023-01-17T08:44:11.406Z,0
2023-01-17T08:45:11.482Z,0.6
2023-01-17T08:46:11.392Z,0.6
2023-01-17T08:47:11.450Z,0.6
2023-01-17T08:48:11.513Z,0
2023-01-17T08:49:11.426Z,0
2023-01-17T08:50:11.413Z,0
2023-01-17T08:51:11.418Z,0
2023-01-17T08:52:11.462Z,0
2023-01-17T08:53:11.488Z,0
2023-01-17T08:54:11.411Z,0
2023-01-17T08:55:11.385Z,0
2023-01-17T08:56:11.388Z,0
2023-01-17T08:57:11.432Z,0
2023-01-17T08:58:11.396Z,0
2023-01-17T08:59:11.476Z,0
2023-01-17T09:00:11.445Z,0
2023-01-17T09:01:11.587Z,0
2023-01-17T09:02:11.427Z,0.8
2023-01-17T09:03:11.500Z,0.8
2023-01-17T09:04:11.512Z,0.8
2023-01-17T09:05:11.601Z,0.7
2023-01-17T09:06:11.442Z,0
2023-01-17T09:07:11.502Z,0
2023-01-17T09:08:11.479Z,0
2023-01-17T09:09:11.515Z,0
2023-01-17T09:10:11.508Z,0
2023-01-17T09:11:11.483Z,0
2023-01-17T09:12:11.561Z,1
2023-01-17T09:13:11.556Z,1
2023-01-17T09:14:11.454Z,1
2023-01-17T09:15:11.587Z,1.4
2023-01-17T09:16:11.542Z,0.5
2023-01-17T09:17:13.111Z,0.5
2023-01-17T09:18:11.423Z,0.5
2023-01-17T09:19:11.468Z,0.7
2023-01-17T09:20:11.509Z,0.7
2023-01-17T09:21:11.471Z,0.7
2023-01-17T09:22:11.528Z,0
2023-01-17T09:23:11.468Z,0
2023-01-17T09:24:11.498Z,0
2023-01-17T09:25:11.775Z,0
2023-01-17T09:26:11.545Z,1.9
2023-01-17T09:27:11.607Z,1.9
2023-01-17T09:28:11.516Z,1.9
2023-01-17T09:29:11.555Z,0
2023-01-17T09:30:11.528Z,0
2023-01-17T09:31:11.545Z,0
2023-01-17T09:32:11.562Z,0
2023-01-17T09:33:11.610Z,0
2023-01-17T09:34:11.517Z,0
2023-01-17T09:35:11.528Z,0
2023-01-17T09:36:11.523Z,0
2023-01-17T09:37:11.593Z,0
2023-01-17T09:38:11.514Z,0
2023-01-17T09:39:11.518Z,0
2023-01-17T09:40:11.562Z,0
2023-01-17T09:41:11.520Z,0
2023-01-17T09:42:11.562Z,1.3
2023-01-17T09:43:11.629Z,1.3
2023-01-17T09:44:11.552Z,1.3
2023-01-17T09:45:11.547Z,1.3
2023-01-17T09:46:11.599Z,0.8
2023-01-17T09:47:11.623Z,0.8
2023-01-17T09:48:11.594Z,0.8
2023-01-17T09:49:11.577Z,0
2023-01-17T09:50:11.556Z,0
2023-01-17T09:51:11.669Z,0
2023-01-17T09:52:11.608Z,0
2023-01-17T09:53:11.600Z,0
2023-01-17T09:54:11.599Z,0
2023-01-17T09:55:11.613Z,0
2023-01-17T09:56:11.621Z,0
2023-01-17T09:57:11.719Z,0
2023-01-17T09:58:11.645Z,0
2023-01-17T09:59:11.629Z,0
2023-01-17T10:00:11.677Z,0
2023-01-17T10:01:11.822Z,0
2023-01-17T10:02:11.925Z,0
2023-01-17T10:03:11.795Z,0
2023-01-17T10:04:11.649Z,0
2023-01-17T10:05:11.678Z,0
2023-01-17T10:06:11.592Z,0
2023-01-17T10:07:11.642Z,0
2023-01-17T10:08:11.595Z,0
2023-01-17T10:09:11.636Z,0
2023-01-17T10:10:11.606Z,0
2023-01-17T10:11:11.688Z,0
2023-01-17T10:12:11.811Z,0
2023-01-17T10:13:11.752Z,0.5
2023-01-17T10:14:11.614Z,0.5
2023-01-17T10:15:11.636Z,0.5
2023-01-17T10:16:11.620Z,0.8
2023-01-17T10:17:11.689Z,0.8
2023-01-17T10:18:19.120Z,0.8
2023-01-17T10:19:11.640Z,1.1
2023-01-17T10:20:11.628Z,1.1
2023-01-17T10:21:11.711Z,1.1
2023-01-17T10:22:11.705Z,1.1
2023-01-17T10:23:11.711Z,0.5
2023-01-17T10:24:11.659Z,0.5
2023-01-17T10:25:11.666Z,0.5
2023-01-17T10:26:11.704Z,0
2023-01-17T10:27:11.815Z,0
2023-01-17T10:28:11.710Z,0
2023-01-17T10:29:11.672Z,0
2023-01-17T10:30:11.657Z,0.6
2023-01-17T10:31:11.702Z,0.6
2023-01-17T10:32:11.670Z,0.6
2023-01-17T10:33:11.678Z,0.8
2023-01-17T10:34:11.669Z,0.8
2023-01-17T10:35:11.974Z,0.8
2023-01-17T10:36:11.677Z,0.8
2023-01-17T10:37:11.715Z,0
2023-01-17T10:38:11.665Z,0
2023-01-17T10:39:11.672Z,0
2023-01-17T10:40:11.682Z,0
2023-01-17T10:41:11.722Z,0
2023-01-17T10:42:11.732Z,0
2023-01-17T10:43:11.694Z,0
2023-01-17T10:44:11.682Z,0
2023-01-17T10:45:11.704Z,0
2023-01-17T10:46:11.692Z,0
2023-01-17T10:47:11.816Z,0
2023-01-17T10:48:11.755Z,0
2023-01-17T10:49:11.744Z,0
2023-01-17T10:50:11.698Z,0
2023-01-17T10:51:11.763Z,0
2023-01-17T10:52:11.744Z,0
2023-01-17T10:53:11.729Z,0
2023-01-17T10:54:11.701Z,0
2023-01-17T10:55:11.717Z,0
2023-01-17T10:56:11.699Z,0
2023-01-17T10:57:11.784Z,1.7
2023-01-17T10:58:11.721Z,1.7
2023-01-17T10:59:11.796Z,1.7
2023-01-17T11:00:11.759Z,0.6
2023-01-17T11:01:11.807Z,0.6
2023-01-17T11:02:11.860Z,0.6
2023-01-17T11:03:11.761Z,1.3
2023-01-17T11:04:11.715Z,1.3
2023-01-17T11:05:11.749Z,1.3
2023-01-17T11:06:11.758Z,1.3
2023-01-17T11:07:11.894Z,0
2023-01-17T11:08:11.769Z,0
2023-01-17T11:09:11.822Z,0
2023-01-17T11:10:11.764Z,0.5
2023-01-17T11:11:11.811Z,0.5
2023-01-17T11:12:11.807Z,0.5
2023-01-17T11:13:11.813Z,0.9
2023-01-17T11:14:11.792Z,0.9
2023-01-17T11:15:11.826Z,0.9
2023-01-17T11:16:11.898Z,0.9
2023-01-17T11:17:11.868Z,0.5
2023-01-17T11:18:11.774Z,0.5
2023-01-17T11:19:11.851Z,0.5
2023-01-17T11:20:11.804Z,1.3
2023-01-17T11:21:11.813Z,1.3
2023-01-17T11:22:11.851Z,1.3
2023-01-17T11:23:11.835Z,0
2023-01-17T11:24:11.792Z,0
2023-01-17T11:25:11.964Z,0
2023-01-17T11:26:11.823Z,0
2023-01-17T11:27:11.825Z,0.8
2023-01-17T11:28:11.840Z,0.8
2023-01-17T11:29:11.815Z,0.8
2023-01-17T11:30:11.799Z,0.8
2023-01-17T11:31:11.855Z,0.8
2023-01-17T11:32:11.874Z,0.8
2023-01-17T11:33:11.818Z,0.8
2023-01-17T11:34:11.845Z,1.1
2023-01-17T11:35:11.839Z,1.1
2023-01-17T11:36:11.802Z,1.1
2023-01-17T11:37:11.872Z,0.9
2023-01-17T11:38:11.813Z,0.9
2023-01-17T11:39:11.814Z,0.9
2023-01-17T11:40:11.831Z,0
2023-01-17T11:41:11.828Z,0
2023-01-17T11:42:11.873Z,0
2023-01-17T11:43:11.891Z,0
2023-01-17T11:44:11.837Z,0.7
2023-01-17T11:45:11.920Z,0.7
2023-01-17T11:46:11.887Z,0.7
2023-01-17T11:47:11.937Z,1.1
2023-01-17T11:48:11.887Z,1.1
2023-01-17T11:49:11.858Z,1.1
2023-01-17T11:50:11.864Z,1.1
2023-01-17T11:51:11.865Z,1.1
2023-01-17T11:52:11.887Z,1.1
2023-01-17T11:53:11.920Z,1.1
2023-01-17T11:54:11.930Z,0.8
2023-01-17T11:55:11.870Z,0.8
2023-01-17T11:56:11.896Z,0.8
2023-01-17T11:57:11.962Z,0.6
2023-01-17T11:58:11.855Z,0.6
2023-01-17T11:59:12.136Z,0.6
2023-01-17T12:00:11.908Z,0.6
2023-01-17T12:01:11.969Z,0
2023-01-17T12:02:11.889Z,0
2023-01-17T12:03:11.918Z,0
2023-01-17T12:04:11.908Z,1
2023-01-17T12:05:11.933Z,1
2023-01-17T12:06:11.919Z,1
2023-01-17T12:07:12.000Z,0.6
2023-01-17T12:08:11.921Z,0.6
2023-01-17T12:09:11.961Z,0.6
2023-01-17T12:10:11.951Z,0.6
2023-01-17T12:11:11.972Z,1.2
2023-01-17T12:12:11.958Z,1.2
2023-01-17T12:13:12.006Z,1.2
2023-01-17T12:14:12.012Z,0.8
2023-01-17T12:15:11.968Z,0.8
2023-01-17T12:16:11.978Z,0.8
2023-01-17T12:17:12.018Z,0.8
2023-01-17T12:18:11.947Z,0
2023-01-17T12:19:11.984Z,0
2023-01-17T12:20:11.960Z,0
2023-01-17T12:21:11.966Z,1.1
2023-01-17T12:22:11.945Z,1.1
2023-01-17T12:23:11.969Z,1.1
2023-01-17T12:24:11.930Z,1.1
2023-01-17T12:25:11.978Z,0.7
2023-01-17T12:26:11.967Z,0.7
2023-01-17T12:27:12.018Z,0.7
2023-01-17T12:28:11.941Z,1.2
2023-01-17T12:29:12.014Z,1.2
2023-01-17T12:30:11.981Z,1.2
2023-01-17T12:31:12.001Z,0
2023-01-17T12:32:12.021Z,0
2023-01-17T12:33:12.053Z,0
2023-01-17T12:34:12.056Z,0
2023-01-17T12:35:11.984Z,1
2023-01-17T12:36:11.996Z,1
2023-01-17T12:37:12.029Z,1
2023-01-17T12:38:20.796Z,1.4
2023-01-17T12:39:12.047Z,1.4
2023-01-17T12:40:11.991Z,1.4
2023-01-17T12:41:12.255Z,1.1
2023-01-17T12:42:12.049Z,1.1
2023-01-17T12:43:12.189Z,1.1
2023-01-17T12:44:11.993Z,1.1
2023-01-17T12:45:12.083Z,1.4
2023-01-17T12:46:12.076Z,1.4
2023-01-17T12:47:12.040Z,1.4
2023-01-17T12:48:12.019Z,0.6
2023-01-17T12:49:12.179Z,0.6
2023-01-17T12:50:12.013Z,0.6
2023-01-17T12:51:12.019Z,0.6
2023-01-17T12:52:12.056Z,0
2023-01-17T12:53:12.018Z,0
2023-01-17T12:54:11.999Z,0
2023-01-17T12:55:12.023Z,0
2023-01-17T12:56:12.016Z,0
2023-01-17T12:57:13.871Z,0
2023-01-17T12:58:12.022Z,0
2023-01-17T12:59:12.024Z,0
2023-01-17T13:00:12.013Z,0
2023-01-17T13:01:12.183Z,0
2023-01-17T13:02:12.088Z,0
2023-01-17T13:03:12.105Z,0
2023-01-17T13:04:12.048Z,0
2023-01-17T13:05:12.099Z,1.2
2023-01-17T13:06:12.052Z,1.2
2023-01-17T13:07:12.187Z,1.2
2023-01-17T13:08:12.087Z,1.2
2023-01-17T13:09:12.116Z,0
2023-01-17T13:10:12.129Z,0
2023-01-17T13:11:12.076Z,0
2023-01-17T13:12:12.061Z,0.5
2023-01-17T13:13:12.154Z,0.5
2023-01-17T13:14:12.078Z,0.5
2023-01-17T13:15:12.088Z,0.8
2023-01-17T13:16:12.164Z,0.8
2023-01-17T13:17:12.165Z,0.8
2023-01-17T13:18:12.133Z,0.8
2023-01-17T13:19:12.094Z,0
2023-01-17T13:20:12.147Z,0
2023-01-17T13:21:12.118Z,0
2023-01-17T13:22:12.141Z,0
2023-01-17T13:23:12.325Z,0
2023-01-17T13:24:12.202Z,0
2023-01-17T13:25:12.100Z,0
2023-01-17T13:26:12.111Z,0.8
2023-01-17T13:27:12.208Z,0.8
2023-01-17T13:28:12.195Z,0.8
2023-01-17T13:29:12.107Z,0.8
2023-01-17T13:30:12.094Z,0.8
2023-01-17T13:31:12.172Z,0.8
2023-01-17T13:32:12.148Z,0.9
2023-01-17T13:33:12.154Z,0.9
2023-01-17T13:34:12.150Z,0.9
2023-01-17T13:35:12.166Z,0.9
2023-01-17T13:36:12.115Z,1
2023-01-17T13:37:12.218Z,1
2023-01-17T13:38:12.209Z,1
2023-01-17T13:39:12.177Z,0.8
2023-01-17T13:40:12.185Z,0.8
2023-01-17T13:41:12.229Z,0.8
2023-01-17T13:42:12.153Z,0.8
2023-01-17T13:43:12.153Z,0.5
2023-01-17T13:44:12.140Z,0.5
2023-01-17T13:45:12.152Z,0.5
2023-01-17T13:46:12.164Z,1.6
2023-01-17T13:47:12.348Z,1.6
2023-01-17T13:48:12.172Z,1.6
2023-01-17T13:49:12.172Z,1.6
2023-01-17T13:50:12.149Z,2
2023-01-17T13:51:12.509Z,2
2023-01-17T13:52:12.171Z,2
2023-01-17T13:53:12.161Z,2
2023-01-17T13:54:12.162Z,2
2023-01-17T13:55:12.233Z,2
2023-01-17T13:56:12.244Z,0.8
2023-01-17T13:57:12.240Z,0.8
2023-01-17T13:58:12.198Z,0.8
2023-01-17T13:59:12.247Z,0.8
2023-01-17T14:00:12.260Z,1.7
2023-01-17T14:01:12.272Z,1.7
2023-01-17T14:02:12.288Z,1.7
2023-01-17T14:03:12.452Z,2.5
2023-01-17T14:04:12.206Z,2.5